sensor_id;sensor_type;location;lat;lon;timestamp;P1;durP1;ratioP1;P2;durP2;ratioP2
32790;SDS011;19143;59.322;14.502;2023-04-25T00:00:50;6.60;;;4.60;;
32790;SDS011;19143;59.322;14.502;2023-04-25T00:03:17;6.17;;;4.53;;
32790;SDS011;19143;59.322;14.502;2023-04-25T00:05:44;9.03;;;4.87;;
32790;SDS011;19143;59.322;14.502;2023-04-25T00:08:11;4.90;;;4.07;;
32790;SDS011;19143;59.322;14.502;2023-04-25T00:10:38;6.07;;;4.20;;
32790;SDS011;19143;59.322;14.502;2023-04-25T00:13:06;6.20;;;3.60;;
32790;SDS011;19143;59.322;14.502;2023-04-25T00:15:36;3.97;;;3.43;;
32790;SDS011;19143;59.322;14.502;2023-04-25T00:18:03;4.37;;;3.10;;
32790;SDS011;19143;59.322;14.502;2023-04-25T00:20:30;3.30;;;3.00;;
32790;SDS011;19143;59.322;14.502;2023-04-25T00:22:57;2.53;;;2.40;;
32790;SDS011;19143;59.322;14.502;2023-04-25T00:25:24;2.50;;;2.20;;
32790;SDS011;19143;59.322;14.502;2023-04-25T00:27:51;2.30;;;2.10;;
32790;SDS011;19143;59.322;14.502;2023-04-25T00:30:19;2.67;;;2.40;;
32790;SDS011;19143;59.322;14.502;2023-04-25T00:32:45;2.47;;;2.27;;
32790;SDS011;19143;59.322;14.502;2023-04-25T00:35:12;2.00;;;1.80;;
32790;SDS011;19143;59.322;14.502;2023-04-25T00:37:38;1.80;;;1.70;;
32790;SDS011;19143;59.322;14.502;2023-04-25T00:40:06;2.27;;;2.07;;
32790;SDS011;19143;59.322;14.502;2023-04-25T00:42:33;2.17;;;2.07;;
32790;SDS011;19143;59.322;14.502;2023-04-25T00:45:01;1.97;;;1.87;;
32790;SDS011;19143;59.322;14.502;2023-04-25T00:47:29;2.37;;;1.80;;
32790;SDS011;19143;59.322;14.502;2023-04-25T00:49:55;1.67;;;1.57;;
32790;SDS011;19143;59.322;14.502;2023-04-25T00:52:22;1.80;;;1.70;;
32790;SDS011;19143;59.322;14.502;2023-04-25T00:54:49;2.20;;;1.83;;
32790;SDS011;19143;59.322;14.502;2023-04-25T00:57:16;1.80;;;1.70;;
32790;SDS011;19143;59.322;14.502;2023-04-25T00:59:43;2.40;;;1.90;;
32790;SDS011;19143;59.322;14.502;2023-04-25T01:02:11;1.30;;;1.30;;
32790;SDS011;19143;59.322;14.502;2023-04-25T01:04:40;1.43;;;1.43;;
32790;SDS011;19143;59.322;14.502;2023-04-25T01:07:06;1.67;;;1.57;;
32790;SDS011;19143;59.322;14.502;2023-04-25T01:09:33;1.40;;;1.40;;
32790;SDS011;19143;59.322;14.502;2023-04-25T01:12:00;2.13;;;1.27;;
32790;SDS011;19143;59.322;14.502;2023-04-25T01:14:26;1.73;;;1.63;;
32790;SDS011;19143;59.322;14.502;2023-04-25T01:16:53;1.33;;;1.23;;
32790;SDS011;19143;59.322;14.502;2023-04-25T01:19:20;3.40;;;1.67;;
32790;SDS011;19143;59.322;14.502;2023-04-25T01:21:48;1.30;;;1.30;;
32790;SDS011;19143;59.322;14.502;2023-04-25T01:24:15;1.93;;;1.83;;
32790;SDS011;19143;59.322;14.502;2023-04-25T01:26:42;1.30;;;1.30;;
32790;SDS011;19143;59.322;14.502;2023-04-25T01:29:14;1.20;;;1.20;;
32790;SDS011;19143;59.322;14.502;2023-04-25T01:31:41;1.57;;;1.47;;
32790;SDS011;19143;59.322;14.502;2023-04-25T01:34:08;1.10;;;1.10;;
32790;SDS011;19143;59.322;14.502;2023-04-25T01:36:34;1.60;;;1.50;;
32790;SDS011;19143;59.322;14.502;2023-04-25T01:39:03;1.37;;;1.30;;
32790;SDS011;19143;59.322;14.502;2023-04-25T01:41:29;1.40;;;1.40;;
32790;SDS011;19143;59.322;14.502;2023-04-25T01:43:56;1.57;;;1.30;;
32790;SDS011;19143;59.322;14.502;2023-04-25T01:46:23;1.07;;;1.07;;
32790;SDS011;19143;59.322;14.502;2023-04-25T01:48:50;1.03;;;1.03;;
32790;SDS011;19143;59.322;14.502;2023-04-25T01:51:16;1.10;;;1.10;;
32790;SDS011;19143;59.322;14.502;2023-04-25T01:53:43;1.10;;;1.10;;
32790;SDS011;19143;59.322;14.502;2023-04-25T01:56:11;2.30;;;1.20;;
32790;SDS011;19143;59.322;14.502;2023-04-25T01:58:38;0.80;;;0.80;;
32790;SDS011;19143;59.322;14.502;2023-04-25T02:01:04;1.10;;;1.10;;
32790;SDS011;19143;59.322;14.502;2023-04-25T02:03:31;1.17;;;0.70;;
32790;SDS011;19143;59.322;14.502;2023-04-25T02:05:58;1.10;;;1.10;;
32790;SDS011;19143;59.322;14.502;2023-04-25T02:08:25;0.90;;;0.90;;
32790;SDS011;19143;59.322;14.502;2023-04-25T02:10:51;0.90;;;0.90;;
32790;SDS011;19143;59.322;14.502;2023-04-25T02:13:20;1.37;;;0.90;;
32790;SDS011;19143;59.322;14.502;2023-04-25T02:15:46;0.73;;;0.73;;
32790;SDS011;19143;59.322;14.502;2023-04-25T02:18:13;0.90;;;0.90;;
32790;SDS011;19143;59.322;14.502;2023-04-25T02:20:41;0.90;;;0.90;;
32790;SDS011;19143;59.322;14.502;2023-04-25T02:23:07;1.10;;;1.10;;
32790;SDS011;19143;59.322;14.502;2023-04-25T02:25:34;0.77;;;0.77;;
32790;SDS011;19143;59.322;14.502;2023-04-25T02:28:01;0.70;;;0.70;;
32790;SDS011;19143;59.322;14.502;2023-04-25T02:30:29;1.00;;;1.00;;
32790;SDS011;19143;59.322;14.502;2023-04-25T02:32:56;1.07;;;0.77;;
32790;SDS011;19143;59.322;14.502;2023-04-25T02:35:22;0.90;;;0.90;;
32790;SDS011;19143;59.322;14.502;2023-04-25T02:37:49;1.07;;;1.07;;
32790;SDS011;19143;59.322;14.502;2023-04-25T02:40:16;1.10;;;1.10;;
32790;SDS011;19143;59.322;14.502;2023-04-25T02:42:48;1.13;;;1.13;;
32790;SDS011;19143;59.322;14.502;2023-04-25T02:45:15;1.10;;;1.10;;
32790;SDS011;19143;59.322;14.502;2023-04-25T02:47:43;2.87;;;1.17;;
32790;SDS011;19143;59.322;14.502;2023-04-25T02:50:10;1.03;;;0.87;;
32790;SDS011;19143;59.322;14.502;2023-04-25T02:52:37;0.90;;;0.90;;
32790;SDS011;19143;59.322;14.502;2023-04-25T02:55:04;1.23;;;0.90;;
32790;SDS011;19143;59.322;14.502;2023-04-25T02:57:31;0.77;;;0.77;;
32790;SDS011;19143;59.322;14.502;2023-04-25T02:59:57;1.13;;;1.13;;
32790;SDS011;19143;59.322;14.502;2023-04-25T03:02:24;0.90;;;0.90;;
32790;SDS011;19143;59.322;14.502;2023-04-25T03:04:52;0.80;;;0.80;;
32790;SDS011;19143;59.322;14.502;2023-04-25T03:07:19;0.60;;;0.60;;
32790;SDS011;19143;59.322;14.502;2023-04-25T03:09:45;0.70;;;0.70;;
32790;SDS011;19143;59.322;14.502;2023-04-25T03:12:12;0.93;;;0.80;;
32790;SDS011;19143;59.322;14.502;2023-04-25T03:14:39;0.87;;;0.87;;
32790;SDS011;19143;59.322;14.502;2023-04-25T03:17:05;0.77;;;0.77;;
32790;SDS011;19143;59.322;14.502;2023-04-25T03:19:32;0.80;;;0.80;;
32790;SDS011;19143;59.322;14.502;2023-04-25T03:22:00;0.53;;;0.53;;
32790;SDS011;19143;59.322;14.502;2023-04-25T03:24:27;0.60;;;0.60;;
32790;SDS011;19143;59.322;14.502;2023-04-25T03:26:53;0.70;;;0.70;;
32790;SDS011;19143;59.322;14.502;2023-04-25T03:29:20;0.80;;;0.80;;
32790;SDS011;19143;59.322;14.502;2023-04-25T03:31:49;0.87;;;0.87;;
32790;SDS011;19143;59.322;14.502;2023-04-25T03:34:16;0.80;;;0.80;;
32790;SDS011;19143;59.322;14.502;2023-04-25T03:36:42;0.70;;;0.70;;
32790;SDS011;19143;59.322;14.502;2023-04-25T03:39:10;0.70;;;0.70;;
32790;SDS011;19143;59.322;14.502;2023-04-25T03:41:37;1.00;;;1.00;;
32790;SDS011;19143;59.322;14.502;2023-04-25T03:44:04;0.90;;;0.90;;
32790;SDS011;19143;59.322;14.502;2023-04-25T03:46:31;1.23;;;1.23;;
32790;SDS011;19143;59.322;14.502;2023-04-25T03:48:58;1.33;;;1.30;;
32790;SDS011;19143;59.322;14.502;2023-04-25T03:51:25;1.00;;;1.00;;
32790;SDS011;19143;59.322;14.502;2023-04-25T03:53:52;0.90;;;0.90;;
32790;SDS011;19143;59.322;14.502;2023-04-25T03:56:20;1.27;;;1.27;;
32790;SDS011;19143;59.322;14.502;2023-04-25T03:58:47;1.17;;;1.10;;
32790;SDS011;19143;59.322;14.502;2023-04-25T04:01:13;1.13;;;1.13;;
32790;SDS011;19143;59.322;14.502;2023-04-25T04:03:40;1.30;;;1.30;;
32790;SDS011;19143;59.322;14.502;2023-04-25T04:06:07;1.13;;;1.13;;
32790;SDS011;19143;59.322;14.502;2023-04-25T04:08:33;1.23;;;1.23;;
32790;SDS011;19143;59.322;14.502;2023-04-25T04:11:00;2.50;;;2.10;;
32790;SDS011;19143;59.322;14.502;2023-04-25T04:13:29;3.87;;;2.30;;
32790;SDS011;19143;59.322;14.502;2023-04-25T04:15:56;3.63;;;2.57;;
32790;SDS011;19143;59.322;14.502;2023-04-25T04:18:22;5.53;;;2.40;;
32790;SDS011;19143;59.322;14.502;2023-04-25T04:20:49;1.70;;;1.60;;
32790;SDS011;19143;59.322;14.502;2023-04-25T04:23:15;2.17;;;1.93;;
32790;SDS011;19143;59.322;14.502;2023-04-25T04:25:42;5.63;;;2.80;;
32790;SDS011;19143;59.322;14.502;2023-04-25T04:28:09;2.93;;;2.60;;
32790;SDS011;19143;59.322;14.502;2023-04-25T04:30:37;1.60;;;1.50;;
32790;SDS011;19143;59.322;14.502;2023-04-25T04:33:04;2.27;;;1.53;;
32790;SDS011;19143;59.322;14.502;2023-04-25T04:35:31;1.30;;;1.30;;
32790;SDS011;19143;59.322;14.502;2023-04-25T04:37:57;1.40;;;1.30;;
32790;SDS011;19143;59.322;14.502;2023-04-25T04:40:24;2.80;;;1.13;;
32790;SDS011;19143;59.322;14.502;2023-04-25T04:42:51;1.30;;;1.30;;
32790;SDS011;19143;59.322;14.502;2023-04-25T04:45:21;1.20;;;1.20;;
32790;SDS011;19143;59.322;14.502;2023-04-25T04:47:49;2.60;;;1.20;;
32790;SDS011;19143;59.322;14.502;2023-04-25T04:50:16;1.33;;;1.30;;
32790;SDS011;19143;59.322;14.502;2023-04-25T04:52:43;1.17;;;1.13;;
32790;SDS011;19143;59.322;14.502;2023-04-25T04:55:09;0.90;;;0.90;;
32790;SDS011;19143;59.322;14.502;2023-04-25T04:57:36;0.70;;;0.70;;
32790;SDS011;19143;59.322;14.502;2023-04-25T05:00:04;1.00;;;1.00;;
32790;SDS011;19143;59.322;14.502;2023-04-25T05:02:33;2.93;;;1.00;;
32790;SDS011;19143;59.322;14.502;2023-04-25T05:05:01;0.90;;;0.90;;
32790;SDS011;19143;59.322;14.502;2023-04-25T05:07:28;0.80;;;0.80;;
32790;SDS011;19143;59.322;14.502;2023-04-25T05:09:55;2.63;;;1.00;;
32790;SDS011;19143;59.322;14.502;2023-04-25T05:12:21;1.10;;;1.10;;
32790;SDS011;19143;59.322;14.502;2023-04-25T05:14:49;1.30;;;1.30;;
32790;SDS011;19143;59.322;14.502;2023-04-25T05:17:22;1.03;;;1.03;;
32790;SDS011;19143;59.322;14.502;2023-04-25T05:19:49;1.00;;;1.00;;
32790;SDS011;19143;59.322;14.502;2023-04-25T05:22:17;1.00;;;1.00;;
32790;SDS011;19143;59.322;14.502;2023-04-25T05:24:47;0.83;;;0.83;;
32790;SDS011;19143;59.322;14.502;2023-04-25T05:27:17;0.90;;;0.90;;
32790;SDS011;19143;59.322;14.502;2023-04-25T05:29:44;1.27;;;1.23;;
32790;SDS011;19143;59.322;14.502;2023-04-25T05:32:10;2.67;;;1.30;;
32790;SDS011;19143;59.322;14.502;2023-04-25T05:34:37;2.60;;;1.90;;
32790;SDS011;19143;59.322;14.502;2023-04-25T05:37:04;0.80;;;0.80;;
32790;SDS011;19143;59.322;14.502;2023-04-25T05:39:32;1.13;;;0.93;;
32790;SDS011;19143;59.322;14.502;2023-04-25T05:41:59;0.90;;;0.90;;
32790;SDS011;19143;59.322;14.502;2023-04-25T05:44:26;1.00;;;1.00;;
32790;SDS011;19143;59.322;14.502;2023-04-25T05:46:53;2.53;;;1.03;;
32790;SDS011;19143;59.322;14.502;2023-04-25T05:49:20;0.93;;;0.80;;
32790;SDS011;19143;59.322;14.502;2023-04-25T05:51:47;1.00;;;1.00;;
32790;SDS011;19143;59.322;14.502;2023-04-25T05:54:13;1.07;;;1.00;;
32790;SDS011;19143;59.322;14.502;2023-04-25T05:56:42;0.70;;;0.70;;
32790;SDS011;19143;59.322;14.502;2023-04-25T05:59:08;0.80;;;0.80;;
32790;SDS011;19143;59.322;14.502;2023-04-25T06:01:35;0.90;;;0.90;;
32790;SDS011;19143;59.322;14.502;2023-04-25T06:04:01;0.80;;;0.80;;
32790;SDS011;19143;59.322;14.502;2023-04-25T06:06:39;0.70;;;0.70;;
32790;SDS011;19143;59.322;14.502;2023-04-25T06:09:12;0.77;;;0.77;;
32790;SDS011;19143;59.322;14.502;2023-04-25T06:11:38;0.77;;;0.67;;
32790;SDS011;19143;59.322;14.502;2023-04-25T06:14:07;0.60;;;0.60;;
32790;SDS011;19143;59.322;14.502;2023-04-25T06:16:33;0.70;;;0.70;;
32790;SDS011;19143;59.322;14.502;2023-04-25T06:19:00;0.77;;;0.77;;
32790;SDS011;19143;59.322;14.502;2023-04-25T06:21:26;0.70;;;0.70;;
32790;SDS011;19143;59.322;14.502;2023-04-25T06:23:53;2.83;;;0.60;;
32790;SDS011;19143;59.322;14.502;2023-04-25T06:26:20;0.40;;;0.40;;
32790;SDS011;19143;59.322;14.502;2023-04-25T06:28:46;1.63;;;0.53;;
32790;SDS011;19143;59.322;14.502;2023-04-25T06:31:15;0.57;;;0.57;;
32790;SDS011;19143;59.322;14.502;2023-04-25T06:33:42;0.60;;;0.60;;
32790;SDS011;19143;59.322;14.502;2023-04-25T06:36:09;0.83;;;0.50;;
32790;SDS011;19143;59.322;14.502;2023-04-25T06:38:36;0.30;;;0.30;;
32790;SDS011;19143;59.322;14.502;2023-04-25T06:41:02;0.77;;;0.77;;
32790;SDS011;19143;59.322;14.502;2023-04-25T06:43:30;0.60;;;0.60;;
32790;SDS011;19143;59.322;14.502;2023-04-25T06:45:58;0.60;;;0.60;;
32790;SDS011;19143;59.322;14.502;2023-04-25T06:48:27;0.40;;;0.40;;
32790;SDS011;19143;59.322;14.502;2023-04-25T06:50:53;0.60;;;0.60;;
32790;SDS011;19143;59.322;14.502;2023-04-25T06:53:21;0.40;;;0.40;;
32790;SDS011;19143;59.322;14.502;2023-04-25T06:55:48;0.50;;;0.50;;
32790;SDS011;19143;59.322;14.502;2023-04-25T06:58:14;0.67;;;0.67;;
32790;SDS011;19143;59.322;14.502;2023-04-25T07:00:41;0.60;;;0.60;;
32790;SDS011;19143;59.322;14.502;2023-04-25T07:03:08;1.90;;;0.40;;
32790;SDS011;19143;59.322;14.502;2023-04-25T07:05:36;0.50;;;0.50;;
32790;SDS011;19143;59.322;14.502;2023-04-25T07:08:03;0.50;;;0.50;;
32790;SDS011;19143;59.322;14.502;2023-04-25T07:10:29;1.90;;;0.30;;
32790;SDS011;19143;59.322;14.502;2023-04-25T07:12:56;0.30;;;0.30;;
32790;SDS011;19143;59.322;14.502;2023-04-25T07:15:23;0.50;;;0.50;;
32790;SDS011;19143;59.322;14.502;2023-04-25T07:17:49;0.27;;;0.27;;
32790;SDS011;19143;59.322;14.502;2023-04-25T07:20:16;0.50;;;0.50;;
32790;SDS011;19143;59.322;14.502;2023-04-25T07:22:45;0.50;;;0.50;;
32790;SDS011;19143;59.322;14.502;2023-04-25T07:25:11;1.23;;;0.87;;
32790;SDS011;19143;59.322;14.502;2023-04-25T07:27:42;2.63;;;1.10;;
32790;SDS011;19143;59.322;14.502;2023-04-25T07:30:09;0.57;;;0.57;;
32790;SDS011;19143;59.322;14.502;2023-04-25T07:32:37;0.30;;;0.30;;
32790;SDS011;19143;59.322;14.502;2023-04-25T07:35:04;0.50;;;0.50;;
32790;SDS011;19143;59.322;14.502;2023-04-25T07:37:32;0.77;;;0.60;;
32790;SDS011;19143;59.322;14.502;2023-04-25T07:40:00;0.77;;;0.50;;
32790;SDS011;19143;59.322;14.502;2023-04-25T07:42:29;0.70;;;0.70;;
32790;SDS011;19143;59.322;14.502;2023-04-25T07:44:55;0.70;;;0.70;;
32790;SDS011;19143;59.322;14.502;2023-04-25T07:47:22;0.40;;;0.40;;
32790;SDS011;19143;59.322;14.502;2023-04-25T07:49:49;1.00;;;1.00;;
32790;SDS011;19143;59.322;14.502;2023-04-25T07:52:15;0.60;;;0.60;;
32790;SDS011;19143;59.322;14.502;2023-04-25T07:54:42;0.70;;;0.70;;
32790;SDS011;19143;59.322;14.502;2023-04-25T07:57:10;0.40;;;0.40;;
32790;SDS011;19143;59.322;14.502;2023-04-25T07:59:38;0.87;;;0.83;;
32790;SDS011;19143;59.322;14.502;2023-04-25T08:02:05;0.60;;;0.60;;
32790;SDS011;19143;59.322;14.502;2023-04-25T08:04:32;0.60;;;0.60;;
32790;SDS011;19143;59.322;14.502;2023-04-25T08:06:58;0.50;;;0.50;;
32790;SDS011;19143;59.322;14.502;2023-04-25T08:09:25;0.53;;;0.53;;
32790;SDS011;19143;59.322;14.502;2023-04-25T08:11:51;0.50;;;0.50;;
32790;SDS011;19143;59.322;14.502;2023-04-25T08:14:27;0.87;;;0.87;;
32790;SDS011;19143;59.322;14.502;2023-04-25T08:16:54;1.00;;;1.00;;
32790;SDS011;19143;59.322;14.502;2023-04-25T08:19:21;0.83;;;0.83;;
32790;SDS011;19143;59.322;14.502;2023-04-25T08:21:50;0.60;;;0.60;;
32790;SDS011;19143;59.322;14.502;2023-04-25T08:24:21;0.70;;;0.70;;
32790;SDS011;19143;59.322;14.502;2023-04-25T08:26:48;0.80;;;0.80;;
32790;SDS011;19143;59.322;14.502;2023-04-25T08:29:15;0.60;;;0.60;;
32790;SDS011;19143;59.322;14.502;2023-04-25T08:31:43;0.60;;;0.60;;
32790;SDS011;19143;59.322;14.502;2023-04-25T08:34:10;0.60;;;0.60;;
32790;SDS011;19143;59.322;14.502;2023-04-25T08:36:37;0.67;;;0.67;;
32790;SDS011;19143;59.322;14.502;2023-04-25T08:39:03;0.80;;;0.80;;
32790;SDS011;19143;59.322;14.502;2023-04-25T08:41:30;0.80;;;0.80;;
32790;SDS011;19143;59.322;14.502;2023-04-25T08:43:57;0.80;;;0.80;;
32790;SDS011;19143;59.322;14.502;2023-04-25T08:46:25;0.80;;;0.80;;
32790;SDS011;19143;59.322;14.502;2023-04-25T08:48:53;0.73;;;0.73;;
32790;SDS011;19143;59.322;14.502;2023-04-25T08:51:25;1.47;;;0.87;;
32790;SDS011;19143;59.322;14.502;2023-04-25T08:53:53;0.63;;;0.63;;
32790;SDS011;19143;59.322;14.502;2023-04-25T08:56:20;0.90;;;0.90;;
32790;SDS011;19143;59.322;14.502;2023-04-25T08:58:48;0.90;;;0.90;;
32790;SDS011;19143;59.322;14.502;2023-04-25T09:01:15;0.87;;;0.87;;
32790;SDS011;19143;59.322;14.502;2023-04-25T09:03:43;0.70;;;0.70;;
32790;SDS011;19143;59.322;14.502;2023-04-25T09:06:13;0.90;;;0.90;;
32790;SDS011;19143;59.322;14.502;2023-04-25T09:08:41;0.80;;;0.80;;
32790;SDS011;19143;59.322;14.502;2023-04-25T09:11:08;0.90;;;0.90;;
32790;SDS011;19143;59.322;14.502;2023-04-25T09:13:34;1.10;;;1.10;;
32790;SDS011;19143;59.322;14.502;2023-04-25T09:16:01;1.00;;;1.00;;
32790;SDS011;19143;59.322;14.502;2023-04-25T09:18:28;1.00;;;1.00;;
32790;SDS011;19143;59.322;14.502;2023-04-25T09:20:56;1.20;;;1.20;;
32790;SDS011;19143;59.322;14.502;2023-04-25T09:23:24;1.20;;;1.20;;
32790;SDS011;19143;59.322;14.502;2023-04-25T09:25:52;2.00;;;1.47;;
32790;SDS011;19143;59.322;14.502;2023-04-25T09:28:22;2.43;;;1.10;;
32790;SDS011;19143;59.322;14.502;2023-04-25T09:30:49;0.87;;;0.87;;
32790;SDS011;19143;59.322;14.502;2023-04-25T09:33:20;2.37;;;1.30;;
32790;SDS011;19143;59.322;14.502;2023-04-25T09:35:52;1.27;;;1.27;;
32790;SDS011;19143;59.322;14.502;2023-04-25T09:38:21;1.50;;;1.47;;
32790;SDS011;19143;59.322;14.502;2023-04-25T09:40:51;1.10;;;1.10;;
32790;SDS011;19143;59.322;14.502;2023-04-25T09:43:21;1.40;;;1.30;;
32790;SDS011;19143;59.322;14.502;2023-04-25T09:45:49;1.07;;;1.07;;
32790;SDS011;19143;59.322;14.502;2023-04-25T09:48:17;1.50;;;1.47;;
32790;SDS011;19143;59.322;14.502;2023-04-25T09:50:43;1.37;;;1.37;;
32790;SDS011;19143;59.322;14.502;2023-04-25T09:53:10;1.33;;;1.33;;
32790;SDS011;19143;59.322;14.502;2023-04-25T09:55:37;1.57;;;1.50;;
32790;SDS011;19143;59.322;14.502;2023-04-25T09:58:06;1.50;;;1.40;;
32790;SDS011;19143;59.322;14.502;2023-04-25T10:00:33;2.67;;;1.50;;
32790;SDS011;19143;59.322;14.502;2023-04-25T10:03:01;1.67;;;1.57;;
32790;SDS011;19143;59.322;14.502;2023-04-25T10:05:29;2.20;;;1.50;;
32790;SDS011;19143;59.322;14.502;2023-04-25T10:07:56;1.70;;;1.60;;
32790;SDS011;19143;59.322;14.502;2023-04-25T10:10:23;5.60;;;1.70;;
32790;SDS011;19143;59.322;14.502;2023-04-25T10:12:53;1.90;;;1.80;;
32790;SDS011;19143;59.322;14.502;2023-04-25T10:15:21;2.00;;;1.90;;
32790;SDS011;19143;59.322;14.502;2023-04-25T10:20:43;2.03;;;1.73;;
32790;SDS011;19143;59.322;14.502;2023-04-25T10:23:11;1.40;;;1.40;;
32790;SDS011;19143;59.322;14.502;2023-04-25T10:26:01;1.60;;;1.60;;
32790;SDS011;19143;59.322;14.502;2023-04-25T10:31:45;3.23;;;1.80;;
32790;SDS011;19143;59.322;14.502;2023-04-25T10:34:12;1.97;;;1.87;;
32790;SDS011;19143;59.322;14.502;2023-04-25T10:39:21;3.93;;;1.57;;
32790;SDS011;19143;59.322;14.502;2023-04-25T10:41:55;1.83;;;1.73;;
32790;SDS011;19143;59.322;14.502;2023-04-25T10:44:23;6.23;;;2.00;;
32790;SDS011;19143;59.322;14.502;2023-04-25T10:55:41;3.37;;;2.40;;
32790;SDS011;19143;59.322;14.502;2023-04-25T10:58:22;2.70;;;2.50;;
32790;SDS011;19143;59.322;14.502;2023-04-25T11:00:50;2.13;;;2.03;;
32790;SDS011;19143;59.322;14.502;2023-04-25T11:03:21;3.50;;;2.10;;
32790;SDS011;19143;59.322;14.502;2023-04-25T11:05:50;3.47;;;2.03;;
32790;SDS011;19143;59.322;14.502;2023-04-25T11:08:24;2.13;;;2.03;;
32790;SDS011;19143;59.322;14.502;2023-04-25T11:11:21;2.07;;;1.97;;
32790;SDS011;19143;59.322;14.502;2023-04-25T11:13:53;2.20;;;2.10;;
32790;SDS011;19143;59.322;14.502;2023-04-25T11:16:21;2.33;;;2.23;;
32790;SDS011;19143;59.322;14.502;2023-04-25T11:18:50;5.00;;;2.40;;
32790;SDS011;19143;59.322;14.502;2023-04-25T11:21:19;2.50;;;2.30;;
32790;SDS011;19143;59.322;14.502;2023-04-25T11:23:46;4.57;;;2.10;;
32790;SDS011;19143;59.322;14.502;2023-04-25T11:28:55;2.60;;;2.40;;
32790;SDS011;19143;59.322;14.502;2023-04-25T11:34:08;35.27;;;20.90;;
32790;SDS011;19143;59.322;14.502;2023-04-25T11:36:44;2.00;;;1.90;;
32790;SDS011;19143;59.322;14.502;2023-04-25T11:39:13;3.30;;;2.57;;
32790;SDS011;19143;59.322;14.502;2023-04-25T11:44:30;2.93;;;2.20;;
32790;SDS011;19143;59.322;14.502;2023-04-25T11:46:57;2.73;;;2.53;;
32790;SDS011;19143;59.322;14.502;2023-04-25T11:49:23;2.73;;;2.20;;
32790;SDS011;19143;59.322;14.502;2023-04-25T11:51:50;2.60;;;2.50;;
32790;SDS011;19143;59.322;14.502;2023-04-25T11:54:18;2.90;;;2.70;;
32790;SDS011;19143;59.322;14.502;2023-04-25T11:59:40;3.10;;;2.90;;
32790;SDS011;19143;59.322;14.502;2023-04-25T12:02:07;2.87;;;2.67;;
32790;SDS011;19143;59.322;14.502;2023-04-25T12:04:33;4.80;;;2.90;;
32790;SDS011;19143;59.322;14.502;2023-04-25T12:07:00;4.40;;;2.73;;
32790;SDS011;19143;59.322;14.502;2023-04-25T12:12:03;2.50;;;2.37;;
32790;SDS011;19143;59.322;14.502;2023-04-25T12:14:34;3.27;;;3.00;;
32790;SDS011;19143;59.322;14.502;2023-04-25T12:17:03;2.80;;;2.50;;
32790;SDS011;19143;59.322;14.502;2023-04-25T12:19:33;4.23;;;2.10;;
32790;SDS011;19143;59.322;14.502;2023-04-25T12:22:18;2.90;;;2.60;;
32790;SDS011;19143;59.322;14.502;2023-04-25T12:24:45;3.17;;;2.87;;
32790;SDS011;19143;59.322;14.502;2023-04-25T12:27:13;8.07;;;2.30;;
32790;SDS011;19143;59.322;14.502;2023-04-25T12:29:49;2.93;;;2.73;;
32790;SDS011;19143;59.322;14.502;2023-04-25T12:32:18;5.50;;;4.47;;
32790;SDS011;19143;59.322;14.502;2023-04-25T12:34:44;10.63;;;6.03;;
32790;SDS011;19143;59.322;14.502;2023-04-25T12:37:11;3.23;;;2.93;;
32790;SDS011;19143;59.322;14.502;2023-04-25T12:39:38;3.70;;;3.40;;
32790;SDS011;19143;59.322;14.502;2023-04-25T12:42:05;12.80;;;5.93;;
32790;SDS011;19143;59.322;14.502;2023-04-25T12:44:33;17.70;;;9.60;;
32790;SDS011;19143;59.322;14.502;2023-04-25T12:47:00;11.03;;;6.67;;
32790;SDS011;19143;59.322;14.502;2023-04-25T12:49:29;23.77;;;12.20;;
32790;SDS011;19143;59.322;14.502;2023-04-25T12:51:56;22.77;;;12.20;;
32790;SDS011;19143;59.322;14.502;2023-04-25T12:54:23;5.90;;;3.70;;
32790;SDS011;19143;59.322;14.502;2023-04-25T12:56:50;4.63;;;3.70;;
32790;SDS011;19143;59.322;14.502;2023-04-25T12:59:17;4.67;;;3.20;;
32790;SDS011;19143;59.322;14.502;2023-04-25T13:01:45;8.03;;;3.73;;
32790;SDS011;19143;59.322;14.502;2023-04-25T13:04:12;3.90;;;3.60;;
32790;SDS011;19143;59.322;14.502;2023-04-25T13:06:41;3.47;;;3.17;;
32790;SDS011;19143;59.322;14.502;2023-04-25T13:09:08;3.60;;;3.27;;
32790;SDS011;19143;59.322;14.502;2023-04-25T13:11:37;3.00;;;2.80;;
32790;SDS011;19143;59.322;14.502;2023-04-25T13:14:04;3.50;;;3.07;;
32790;SDS011;19143;59.322;14.502;2023-04-25T13:16:30;4.40;;;3.50;;
32790;SDS011;19143;59.322;14.502;2023-04-25T13:18:57;6.77;;;2.97;;
32790;SDS011;19143;59.322;14.502;2023-04-25T13:21:24;4.13;;;3.73;;
32790;SDS011;19143;59.322;14.502;2023-04-25T13:23:59;4.37;;;3.47;;
32790;SDS011;19143;59.322;14.502;2023-04-25T13:26:26;3.83;;;3.53;;
32790;SDS011;19143;59.322;14.502;2023-04-25T13:28:53;4.13;;;3.50;;
32790;SDS011;19143;59.322;14.502;2023-04-25T13:31:19;5.37;;;3.97;;
32790;SDS011;19143;59.322;14.502;2023-04-25T13:33:47;4.00;;;3.63;;
32790;SDS011;19143;59.322;14.502;2023-04-25T13:36:13;5.00;;;3.93;;
32790;SDS011;19143;59.322;14.502;2023-04-25T13:38:40;5.20;;;4.20;;
32790;SDS011;19143;59.322;14.502;2023-04-25T13:41:10;9.53;;;4.10;;
32790;SDS011;19143;59.322;14.502;2023-04-25T13:43:41;4.70;;;4.20;;
32790;SDS011;19143;59.322;14.502;2023-04-25T13:46:08;5.70;;;4.50;;
32790;SDS011;19143;59.322;14.502;2023-04-25T13:48:35;5.83;;;3.90;;
32790;SDS011;19143;59.322;14.502;2023-04-25T13:51:02;5.07;;;3.67;;
32790;SDS011;19143;59.322;14.502;2023-04-25T13:53:29;6.73;;;4.73;;
32790;SDS011;19143;59.322;14.502;2023-04-25T13:55:55;4.70;;;3.90;;
32790;SDS011;19143;59.322;14.502;2023-04-25T13:58:25;5.83;;;4.33;;
32790;SDS011;19143;59.322;14.502;2023-04-25T14:00:52;9.27;;;5.10;;
32790;SDS011;19143;59.322;14.502;2023-04-25T14:03:19;7.57;;;4.47;;
32790;SDS011;19143;59.322;14.502;2023-04-25T14:05:46;6.17;;;4.33;;
32790;SDS011;19143;59.322;14.502;2023-04-25T14:08:12;4.40;;;3.80;;
32790;SDS011;19143;59.322;14.502;2023-04-25T14:10:39;4.80;;;4.13;;
32790;SDS011;19143;59.322;14.502;2023-04-25T14:13:10;5.60;;;4.03;;
32790;SDS011;19143;59.322;14.502;2023-04-25T14:15:38;5.23;;;4.20;;
32790;SDS011;19143;59.322;14.502;2023-04-25T14:18:05;7.37;;;4.40;;
32790;SDS011;19143;59.322;14.502;2023-04-25T14:20:32;5.90;;;4.33;;
32790;SDS011;19143;59.322;14.502;2023-04-25T14:22:59;8.67;;;4.80;;
32790;SDS011;19143;59.322;14.502;2023-04-25T14:25:27;6.13;;;4.40;;
32790;SDS011;19143;59.322;14.502;2023-04-25T14:27:56;10.67;;;4.97;;
32790;SDS011;19143;59.322;14.502;2023-04-25T14:30:23;5.40;;;4.43;;
32790;SDS011;19143;59.322;14.502;2023-04-25T14:32:51;6.10;;;4.43;;
32790;SDS011;19143;59.322;14.502;2023-04-25T14:35:18;9.13;;;4.67;;
32790;SDS011;19143;59.322;14.502;2023-04-25T14:37:45;4.57;;;4.00;;
32790;SDS011;19143;59.322;14.502;2023-04-25T14:40:12;5.77;;;4.40;;
32790;SDS011;19143;59.322;14.502;2023-04-25T14:42:40;7.23;;;5.03;;
32790;SDS011;19143;59.322;14.502;2023-04-25T14:45:07;8.73;;;5.67;;
32790;SDS011;19143;59.322;14.502;2023-04-25T14:47:42;11.53;;;6.53;;
32790;SDS011;19143;59.322;14.502;2023-04-25T14:50:17;8.20;;;5.27;;
32790;SDS011;19143;59.322;14.502;2023-04-25T14:52:51;5.17;;;4.37;;
32790;SDS011;19143;59.322;14.502;2023-04-25T14:55:18;7.10;;;4.73;;
32790;SDS011;19143;59.322;14.502;2023-04-25T14:57:45;7.70;;;5.47;;
32790;SDS011;19143;59.322;14.502;2023-04-25T15:02:53;9.80;;;6.10;;
32790;SDS011;19143;59.322;14.502;2023-04-25T15:05:21;9.40;;;5.37;;
32790;SDS011;19143;59.322;14.502;2023-04-25T15:07:48;11.00;;;5.30;;
32790;SDS011;19143;59.322;14.502;2023-04-25T15:10:16;6.37;;;5.07;;